createdAt,value
2022-10-29T00:01:29.742Z,99441.84
2022-10-29T00:03:57.005Z,99443.59
2022-10-29T00:06:25.860Z,99453.00
2022-10-29T00:08:53.100Z,99446.94
2022-10-29T00:11:22.969Z,99452.69
2022-10-29T00:13:55.614Z,99430.97
2022-10-29T00:16:25.537Z,99439.16
2022-10-29T00:18:52.942Z,99443.03
2022-10-29T00:21:22.870Z,99438.75
2022-10-29T00:23:52.201Z,99438.75
2022-10-29T00:26:21.969Z,99445.16
2022-10-29T00:28:52.456Z,99439.25
2022-10-29T00:31:20.028Z,99442.75
2022-10-29T00:33:47.619Z,99441.66
2022-10-29T00:36:17.260Z,99452.69
2022-10-29T00:38:45.218Z,99439.25
2022-10-29T00:41:15.838Z,99435.38
2022-10-29T00:43:47.833Z,99439.13
2022-10-29T00:46:21.769Z,99434.97
2022-10-29T00:48:51.879Z,99437.38
2022-10-29T00:51:19.892Z,99431.19
2022-10-29T00:53:53.716Z,99431.19
2022-10-29T00:56:25.783Z,99428.75
2022-10-29T00:58:53.543Z,99419.34
2022-10-29T01:01:21.081Z,99419.09
2022-10-29T01:03:49.078Z,99420.97
2022-10-29T01:06:16.234Z,99414.78
2022-10-29T01:08:43.459Z,99415.72
2022-10-29T01:11:20.921Z,99416.38
2022-10-29T01:14:04.567Z,99411.94
2022-10-29T01:16:45.466Z,99404.44
2022-10-29T01:19:20.947Z,99414.50
2022-10-29T01:21:53.302Z,99397.56
2022-10-29T01:25:04.167Z,99400.81
2022-10-29T01:27:56.006Z,99398.09
2022-10-29T01:30:49.576Z,99386.31
2022-10-29T01:33:23.631Z,99380.41
2022-10-29T01:35:58.662Z,99377.97
2022-10-29T01:38:34.857Z,99377.03
2022-10-29T01:41:09.641Z,99377.03
2022-10-29T01:43:41.581Z,99366.47
2022-10-29T01:46:13.328Z,99360.47
2022-10-29T01:48:45.496Z,99360.63
2022-10-29T01:51:19.294Z,99346.81
2022-10-29T01:53:46.655Z,99355.66
2022-10-29T01:56:14.190Z,99350.84
2022-10-29T01:58:47.238Z,99362.00
2022-10-29T02:01:34.204Z,99370.31
2022-10-29T02:04:17.964Z,99365.47
2022-10-29T02:06:56.198Z,99367.09
2022-10-29T02:09:32.504Z,99366.16
2022-10-29T02:12:08.994Z,99361.63
2022-10-29T02:15:02.863Z,99357.19
2022-10-29T02:17:33.398Z,99358.25
2022-10-29T02:20:04.462Z,99350.72
2022-10-29T02:22:31.662Z,99349.13
2022-10-29T02:24:58.982Z,99344.72
2022-10-29T02:27:26.269Z,99348.16
2022-10-29T02:29:53.754Z,99346.31
2022-10-29T02:32:21.073Z,99345.38
2022-10-29T02:34:49.748Z,99331.69
2022-10-29T02:37:17.021Z,99329.13
2022-10-29T02:39:44.414Z,99324.03
2022-10-29T02:42:11.593Z,99312.88
2022-10-29T02:44:38.738Z,99320.53
2022-10-29T02:47:05.971Z,99311.28
2022-10-29T02:49:33.269Z,99316.09
2022-10-29T02:52:01.962Z,99307.13
2022-10-29T02:54:29.262Z,99311.28
2022-10-29T02:56:56.644Z,99304.56
2022-10-29T02:59:24.228Z,99310.47
2022-10-29T03:01:51.592Z,99298.38
2022-10-29T03:04:18.924Z,99301.34
2022-10-29T03:06:46.327Z,99304.28
2022-10-29T03:09:14.970Z,99309.38
2022-10-29T03:11:42.316Z,99306.69
2022-10-29T03:14:09.531Z,99290.59
2022-10-29T03:16:36.992Z,99287.38
2022-10-29T03:19:04.465Z,99287.91
2022-10-29T03:21:31.654Z,99285.19
2022-10-29T03:23:58.906Z,99281.69
2022-10-29T03:26:27.748Z,99276.31
2022-10-29T03:28:56.483Z,99268.81
2022-10-29T03:31:23.852Z,99270.25
2022-10-29T03:33:51.164Z,99266.13
2022-10-29T03:36:18.538Z,99260.22
2022-10-29T03:38:45.860Z,99263.13
2022-10-29T03:41:13.324Z,99261.66
2022-10-29T03:43:42.101Z,99256.28
2022-10-29T03:46:09.446Z,99249.56
2022-10-29T03:48:36.639Z,99243.66
2022-10-29T03:51:08.317Z,99245.09
2022-10-29T03:53:36.797Z,99255.03
2022-10-29T03:56:05.142Z,99253.13
2022-10-29T03:58:32.484Z,99250.44
2022-10-29T04:01:02.975Z,99259.53
2022-10-29T04:03:32.071Z,99245.63
2022-10-29T04:06:01.380Z,99232.22
2022-10-29T04:08:29.298Z,99252.31
2022-10-29T04:10:56.505Z,99241.34
2022-10-29T04:13:23.789Z,99229.22
2022-10-29T04:15:54.411Z,99239.91
2022-10-29T04:18:23.144Z,99226.22
2022-10-29T04:23:01.937Z,99218.72
2022-10-29T04:29:12.604Z,99204.06
2022-10-29T04:31:40.231Z,99201.81
2022-10-29T04:34:08.926Z,99202.75
2022-10-29T04:36:36.494Z,99196.06
2022-10-29T04:39:04.347Z,99189.22
2022-10-29T04:41:31.670Z,99189.56
2022-10-29T04:43:59.039Z,99185.72
2022-10-29T04:46:26.414Z,99175.50
2022-10-29T04:48:54.421Z,99175.34
2022-10-29T04:51:25.163Z,99163.84
2022-10-29T04:53:52.493Z,99178.06
2022-10-29T04:56:19.966Z,99170.53
2022-10-29T04:58:47.156Z,99169.75
2022-10-29T05:01:14.570Z,99163.56
2022-10-29T05:03:41.858Z,99170.59
2022-10-29T05:06:09.235Z,99162.50
2022-10-29T05:08:38.094Z,99163.28
2022-10-29T05:11:06.075Z,99164.53
2022-10-29T05:13:33.982Z,99166.16
2022-10-29T05:16:01.746Z,99164.06
2022-10-29T05:18:29.242Z,99161.03
2022-10-29T05:20:56.783Z,99162.16
2022-10-29T05:23:24.554Z,99152.31
2022-10-29T05:25:56.205Z,99156.88
2022-10-29T05:28:23.919Z,99152.59
2022-10-29T05:30:52.799Z,99149.59
2022-10-29T05:33:23.459Z,99153.03
2022-10-29T05:35:51.872Z,99149.22
2022-10-29T05:38:20.581Z,99143.31
2022-10-29T05:40:48.030Z,99145.06
2022-10-29T05:43:17.773Z,99146.84
2022-10-29T05:45:45.569Z,99144.31
2022-10-29T05:50:46.159Z,99130.88
2022-10-29T05:53:17.549Z,99130.09
2022-10-29T05:55:45.764Z,99124.66
2022-10-29T05:58:13.994Z,99127.56
2022-10-29T06:00:43.995Z,99128.53
2022-10-29T06:03:15.922Z,99122.97
2022-10-29T06:05:43.669Z,99122.19
2022-10-29T06:08:10.998Z,99118.72
2022-10-29T06:10:38.783Z,99117.41
2022-10-29T06:13:10.525Z,99122.06
2022-10-29T06:15:38.794Z,99122.53
2022-10-29T06:18:27.159Z,99118.84
2022-10-29T06:21:02.865Z,99119.06
2022-10-29T06:23:32.363Z,99118.56
2022-10-29T06:26:01.093Z,99114.69
2022-10-29T06:28:33.774Z,99105.94
2022-10-29T06:31:01.848Z,99110.25
2022-10-29T06:33:30.653Z,99099.38
2022-10-29T06:35:59.537Z,99094.94
2022-10-29T06:38:26.930Z,99093.34
2022-10-29T06:40:54.480Z,99093.19
2022-10-29T06:43:22.109Z,99098.63
2022-10-29T06:45:50.251Z,99095.41
2022-10-29T06:48:22.500Z,99087.16
2022-10-29T06:50:55.100Z,99088.56
2022-10-29T06:53:22.336Z,99086.03
2022-10-29T06:55:49.686Z,99073.25
2022-10-29T06:58:19.295Z,99065.59
2022-10-29T07:00:47.393Z,99066.28
2022-10-29T07:03:15.000Z,99061.78
2022-10-29T07:05:42.468Z,99052.09
2022-10-29T07:08:11.801Z,99051.16
2022-10-29T07:10:39.894Z,99054.66
2022-10-29T07:13:07.419Z,99049.88
2022-10-29T07:15:34.878Z,99056.88
2022-10-29T07:18:03.973Z,99056.56
2022-10-29T07:20:33.434Z,99039.66
2022-10-29T07:23:01.596Z,99049.06
2022-10-29T07:25:31.219Z,99038.53
2022-10-29T07:28:03.889Z,99028.47
2022-10-29T07:30:31.396Z,99029.47
2022-10-29T07:32:58.653Z,99031.03
2022-10-29T07:35:25.875Z,99022.44
2022-10-29T07:37:53.467Z,99028.47
2022-10-29T07:40:20.872Z,99023.88
2022-10-29T07:42:53.940Z,99021.00
2022-10-29T07:45:21.857Z,99019.25
2022-10-29T07:47:49.239Z,99019.09
2022-10-29T07:50:16.767Z,99010.00
2022-10-29T07:52:44.178Z,99015.59
2022-10-29T07:55:11.764Z,99014.28
2022-10-29T07:57:39.079Z,99003.47
2022-10-29T08:00:09.098Z,99011.41
2022-10-29T08:02:39.818Z,98996.44
2022-10-29T08:05:08.407Z,98982.53
2022-10-29T08:07:35.577Z,98990.66
2022-10-29T08:10:02.856Z,98982.94
2022-10-29T08:12:30.379Z,98971.59
2022-10-29T08:14:57.653Z,98980.22
2022-10-29T08:17:29.091Z,98975.41
2022-10-29T08:19:56.595Z,98964.06
2022-10-29T08:22:24.048Z,98969.66
2022-10-29T08:24:51.501Z,98971.84
2022-10-29T08:27:18.754Z,98969.16
2022-10-29T08:29:45.917Z,98970.91
2022-10-29T08:32:13.173Z,98952.75
2022-10-29T08:34:41.832Z,98967.28
2022-10-29T08:37:09.086Z,98963.25
2022-10-29T08:39:36.303Z,98953.06
2022-10-29T08:42:16.310Z,98952.44
2022-10-29T08:45:02.888Z,98952.59
2022-10-29T08:47:38.147Z,98946.69
2022-10-29T08:50:19.485Z,98944.13
2022-10-29T08:52:58.811Z,98931.72
2022-10-29T08:55:38.216Z,98932.53
2022-10-29T08:58:16.620Z,98929.16
2022-10-29T09:00:44.463Z,98910.34
2022-10-29T09:03:13.432Z,98910.34
2022-10-29T09:05:54.733Z,98905.72
2022-10-29T09:08:38.082Z,98896.66
2022-10-29T09:11:18.088Z,98899.50
2022-10-29T09:13:55.761Z,98898.88
2022-10-29T09:16:35.476Z,98898.22
2022-10-29T09:19:25.701Z,98886.47
2022-10-29T09:22:01.456Z,98886.00
2022-10-29T09:24:37.424Z,98870.69
2022-10-29T09:27:12.010Z,98865.06
2022-10-29T09:29:56.441Z,98858.41
2022-10-29T09:32:28.582Z,98855.06
2022-10-29T09:34:59.053Z,98854.25
2022-10-29T09:37:41.072Z,98840.69
2022-10-29T09:40:18.037Z,98852.50
2022-10-29T09:42:47.946Z,98847.06
2022-10-29T09:45:18.410Z,98843.88
2022-10-29T09:47:55.584Z,98846.94
2022-10-29T09:50:30.125Z,98847.06
2022-10-29T09:52:59.812Z,98843.56
2022-10-29T09:55:32.506Z,98831.31
2022-10-29T09:58:00.156Z,98842.16
2022-10-29T10:00:29.126Z,98834.66
2022-10-29T10:03:04.211Z,98819.19
2022-10-29T10:05:33.695Z,98821.59
2022-10-29T10:08:08.991Z,98820.16
2022-10-29T10:10:39.747Z,98810.88
2022-10-29T10:13:17.026Z,98804.22
2022-10-29T10:15:52.512Z,98809.63
2022-10-29T10:18:22.060Z,98795.28
2022-10-29T10:21:01.338Z,98794.00
2022-10-29T10:23:40.722Z,98796.88
2022-10-29T10:26:35.046Z,98790.81
2022-10-29T10:29:14.332Z,98791.78
2022-10-29T10:31:42.894Z,98791.13
2022-10-29T10:34:16.781Z,98786.66
2022-10-29T10:36:48.904Z,98782.03
2022-10-29T10:39:30.487Z,98774.06
2022-10-29T10:41:59.972Z,98780.44
2022-10-29T10:44:28.436Z,98780.28
2022-10-29T10:46:59.718Z,98767.03
2022-10-29T10:49:32.955Z,98764.34
2022-10-29T10:52:04.465Z,98760.19
2022-10-29T10:54:39.003Z,98744.72
2022-10-29T10:57:21.156Z,98737.38
2022-10-29T10:59:57.554Z,98736.59
2022-10-29T11:02:34.173Z,98724.78
2022-10-29T11:05:09.748Z,98726.03
2022-10-29T11:07:43.554Z,98719.06
2022-10-29T11:10:15.019Z,98726.84
2022-10-29T11:12:47.275Z,98712.16
2022-10-29T11:15:20.041Z,98724.16
2022-10-29T11:17:54.429Z,98714.56
2022-10-29T11:20:27.115Z,98701.19
2022-10-29T11:23:05.087Z,98691.75
2022-10-29T11:25:40.411Z,98691.09
2022-10-29T11:28:19.255Z,98681.53
2022-10-29T11:30:52.177Z,98694.16
2022-10-29T11:33:25.472Z,98690.00
2022-10-29T11:36:01.444Z,98676.63
2022-10-29T11:38:33.477Z,98686.31
2022-10-29T11:41:07.776Z,98669.25
2022-10-29T11:43:35.339Z,98687.75
2022-10-29T11:46:11.963Z,98670.69
2022-10-29T11:48:50.685Z,98674.69
2022-10-29T11:51:28.960Z,98667.81
2022-10-29T11:54:02.850Z,98667.63
2022-10-29T11:56:46.519Z,98671.78
2022-10-29T11:59:23.095Z,98661.25
2022-10-29T12:01:57.724Z,98642.59
2022-10-29T12:04:30.337Z,98657.13
2022-10-29T12:07:13.135Z,98652.63
2022-10-29T12:10:06.198Z,98636.31
2022-10-29T12:12:41.090Z,98650.88
2022-10-29T12:15:18.364Z,98646.53
2022-10-29T12:17:54.143Z,98646.56
2022-10-29T12:20:28.287Z,98635.41
2022-10-29T12:23:05.891Z,98636.13
2022-10-29T12:25:54.074Z,98638.56
2022-10-29T12:28:33.833Z,98628.66
2022-10-29T12:31:14.164Z,98636.31
2022-10-29T12:33:50.245Z,98630.56
2022-10-29T12:36:27.800Z,98619.72
2022-10-29T12:38:57.238Z,98621.00
2022-10-29T12:41:27.127Z,98622.13
2022-10-29T12:44:01.224Z,98611.97
2022-10-29T12:46:35.680Z,98601.94
2022-10-29T12:49:09.665Z,98606.69
2022-10-29T12:51:45.888Z,98609.44
2022-10-29T12:54:24.341Z,98600.47
2022-10-29T12:56:51.926Z,98599.97
2022-10-29T12:59:38.184Z,98582.75
2022-10-29T13:02:30.342Z,98591.38
2022-10-29T13:05:16.445Z,98596.47
2022-10-29T13:08:18.337Z,98589.47
2022-10-29T13:10:51.047Z,98572.09
2022-10-29T13:13:54.826Z,98578.94
2022-10-29T13:16:29.553Z,98573.56
2022-10-29T13:19:09.460Z,98563.19
2022-10-29T13:22:03.795Z,98562.03
2022-10-29T13:24:31.390Z,98558.59
2022-10-29T13:27:04.548Z,98568.91
2022-10-29T13:30:16.888Z,98554.88
2022-10-29T13:32:45.641Z,98542.59
2022-10-29T13:35:39.131Z,98545.13
2022-10-29T13:38:16.204Z,98549.16
2022-10-29T13:41:07.691Z,98547.38
2022-10-29T13:43:35.468Z,98537.47
2022-10-29T13:46:28.528Z,98540.00
2022-10-29T13:49:00.982Z,98528.06
2022-10-29T13:51:34.504Z,98518.50
2022-10-29T13:54:06.853Z,98515.16
2022-10-29T13:56:41.758Z,98509.53
2022-10-29T13:59:22.179Z,98507.78
2022-10-29T14:02:00.537Z,98512.75
2022-10-29T14:04:34.531Z,98513.56
2022-10-29T14:07:06.588Z,98508.09
2022-10-29T14:09:40.843Z,98501.44
2022-10-29T14:12:11.144Z,98500.16
2022-10-29T14:14:48.971Z,98499.88
2022-10-29T14:17:17.594Z,98501.75
2022-10-29T14:19:47.812Z,98504.59
2022-10-29T14:22:37.500Z,98481.53
2022-10-29T14:25:33.879Z,98489.75
2022-10-29T14:28:19.733Z,98483.56
2022-10-29T14:30:48.295Z,98484.84
2022-10-29T14:33:34.384Z,98477.47
2022-10-29T14:36:11.453Z,98471.13
2022-10-29T14:38:43.346Z,98471.47
2022-10-29T14:41:11.530Z,98464.09
2022-10-29T14:43:40.068Z,98460.59
2022-10-29T14:46:14.446Z,98452.88
2022-10-29T14:48:51.953Z,98440.72
2022-10-29T14:51:21.968Z,98456.16
2022-10-29T14:53:54.548Z,98443.69
2022-10-29T14:56:31.892Z,98439.09
2022-10-29T14:59:00.229Z,98444.34
2022-10-29T15:01:27.682Z,98429.16
2022-10-29T15:03:59.642Z,98428.09
2022-10-29T15:06:30.169Z,98408.97
2022-10-29T15:08:59.782Z,98417.00
2022-10-29T15:11:36.599Z,98412.41
2022-10-29T15:14:05.665Z,98407.81
2022-10-29T15:16:38.131Z,98410.66
2022-10-29T15:19:15.300Z,98395.75
2022-10-29T15:21:44.414Z,98411.09
2022-10-29T15:24:20.426Z,98393.25
2022-10-29T15:26:50.888Z,98386.91
2022-10-29T15:29:27.841Z,98386.63
2022-10-29T15:31:58.510Z,98384.69
2022-10-29T15:34:34.939Z,98379.59
2022-10-29T15:37:23.555Z,98377.31
2022-10-29T15:40:04.346Z,98370.63
2022-10-29T15:42:33.851Z,98366.66
2022-10-29T15:45:19.005Z,98372.91
2022-10-29T15:47:51.087Z,98363.47
2022-10-29T15:50:21.143Z,98362.00
2022-10-29T15:52:53.521Z,98355.31
2022-10-29T15:55:26.286Z,98362.00
2022-10-29T15:57:59.741Z,98348.81
2022-10-29T16:00:28.046Z,98350.72
2022-10-29T16:02:57.716Z,98346.41
2022-10-29T16:05:25.311Z,98343.06
2022-10-29T16:07:54.151Z,98335.84
2022-10-29T16:10:22.014Z,98327.06
2022-10-29T16:12:50.234Z,98327.41
2022-10-29T16:15:19.847Z,98314.84
2022-10-29T16:17:47.755Z,98326.72
2022-10-29T16:20:16.773Z,98321.50
2022-10-29T16:22:45.678Z,98315.91
2022-10-29T16:25:22.615Z,98319.69
2022-10-29T16:27:50.533Z,98308.84
2022-10-29T16:30:18.669Z,98308.25
2022-10-29T16:32:46.534Z,98303.91
2022-10-29T16:35:16.640Z,98299.59
2022-10-29T16:37:43.875Z,98293.97
2022-10-29T16:40:12.410Z,98288.28
2022-10-29T16:42:41.519Z,98300.50
2022-10-29T16:45:13.897Z,98287.13
2022-10-29T16:47:40.929Z,98294.44
2022-10-29T16:50:09.982Z,98280.44
2022-10-29T16:52:37.215Z,98282.81
2022-10-29T16:55:05.348Z,98271.47
2022-10-29T16:57:32.616Z,98268.38
2022-10-29T17:00:01.466Z,98258.34
2022-10-29T17:02:29.006Z,98258.06
2022-10-29T17:04:56.308Z,98248.75
2022-10-29T17:07:23.425Z,98247.34
2022-10-29T17:09:50.682Z,98246.91
2022-10-29T17:12:18.652Z,98239.50
2022-10-29T17:14:45.941Z,98244.00
2022-10-29T17:17:14.865Z,98239.25
2022-10-29T17:19:42.082Z,98231.75
2022-10-29T17:22:11.509Z,98231.44
2022-10-29T17:24:38.892Z,98221.75
2022-10-29T17:27:06.160Z,98213.81
2022-10-29T17:29:36.276Z,98216.53
2022-10-29T17:32:05.126Z,98214.50
2022-10-29T17:34:33.918Z,98201.22
2022-10-29T17:37:01.460Z,98203.94
2022-10-29T17:39:28.808Z,98203.59
2022-10-29T17:41:56.286Z,98202.34
2022-10-29T17:44:23.639Z,98189.00
2022-10-29T17:46:50.821Z,98177.56
2022-10-29T17:49:18.281Z,98181.94
2022-10-29T17:51:47.492Z,98175.28
2022-10-29T17:54:14.859Z,98169.53
2022-10-29T17:56:42.199Z,98172.88
2022-10-29T17:59:09.555Z,98160.13
2022-10-29T18:01:37.040Z,98163.03
2022-10-29T18:04:06.209Z,98149.28
2022-10-29T18:06:33.617Z,98144.91
2022-10-29T18:09:02.467Z,98150.97
2022-10-29T18:11:30.036Z,98134.06
2022-10-29T18:13:57.815Z,98135.03
2022-10-29T18:16:26.963Z,98124.56
2022-10-29T18:19:02.225Z,98123.59
2022-10-29T18:21:30.871Z,98122.97
2022-10-29T18:23:58.462Z,98115.56
2022-10-29T18:26:28.765Z,98112.41
2022-10-29T18:28:57.231Z,98112.41
2022-10-29T18:31:27.450Z,98088.03
2022-10-29T18:33:55.509Z,98086.94
2022-10-29T18:36:23.112Z,98098.31
2022-10-29T18:38:51.093Z,98086.53
2022-10-29T18:41:18.707Z,98086.94
2022-10-29T18:43:47.736Z,98079.50
2022-10-29T18:46:15.478Z,98070.41
2022-10-29T18:48:47.932Z,98073.41
2022-10-29T18:51:16.710Z,98070.88
2022-10-29T18:53:44.005Z,98073.06
2022-10-29T18:56:13.384Z,98068.75
2022-10-29T18:58:41.442Z,98069.88
2022-10-29T19:01:13.128Z,98060.66
2022-10-29T19:03:41.509Z,98069.16
2022-10-29T19:06:11.036Z,98064.44
2022-10-29T19:08:40.552Z,98059.56
2022-10-29T19:11:10.359Z,98059.31
2022-10-29T19:13:38.004Z,98035.38
2022-10-29T19:16:07.171Z,98052.47
2022-10-29T19:18:37.073Z,98056.22
2022-10-29T19:21:05.367Z,98050.50
2022-10-29T19:23:33.044Z,98045.75
2022-10-29T19:26:03.351Z,98037.31
2022-10-29T19:28:31.586Z,98044.59
2022-10-29T19:31:02.363Z,98039.75
2022-10-29T19:33:29.764Z,98037.19
2022-10-29T19:35:58.617Z,98033.25
2022-10-29T19:38:26.475Z,98037.56
2022-10-29T19:40:56.232Z,98028.16
2022-10-29T19:43:23.775Z,98029.28
2022-10-29T19:45:51.176Z,98026.19
2022-10-29T19:48:19.191Z,98017.94
2022-10-29T19:50:46.561Z,98009.22
2022-10-29T19:53:15.414Z,98013.00
2022-10-29T19:55:42.834Z,98011.63
2022-10-29T19:58:10.026Z,98000.00
2022-10-29T20:00:37.656Z,97989.59
2022-10-29T20:03:05.012Z,97987.94
2022-10-29T20:08:04.611Z,97979.28
2022-10-29T20:10:34.316Z,97974.50
2022-10-29T20:13:01.942Z,97968.28
2022-10-29T20:15:29.242Z,97957.44
2022-10-29T20:17:57.370Z,97952.16
2022-10-29T20:20:25.480Z,97951.63
2022-10-29T20:22:52.934Z,97939.56
2022-10-29T20:25:23.886Z,97933.69
2022-10-29T20:27:52.856Z,97930.97
2022-10-29T20:30:20.223Z,97919.56
2022-10-29T20:32:48.771Z,97909.91
2022-10-29T20:35:16.171Z,97902.25
2022-10-29T20:37:43.449Z,97893.63
2022-10-29T20:40:11.973Z,97891.25
2022-10-29T20:42:39.237Z,97887.34
2022-10-29T20:45:08.904Z,97883.19
2022-10-29T20:47:36.299Z,97884.16
2022-10-29T20:50:03.670Z,97886.53
2022-10-29T20:52:30.942Z,97877.13
2022-10-29T20:54:58.199Z,97875.72
2022-10-29T20:57:25.576Z,97868.50
2022-10-29T20:59:52.911Z,97861.81
2022-10-29T21:02:21.756Z,97863.00
2022-10-29T21:04:49.200Z,97855.53
2022-10-29T21:07:16.725Z,97850.03
2022-10-29T21:09:44.062Z,97834.31
2022-10-29T21:12:11.379Z,97828.41
2022-10-29T21:14:38.658Z,97831.53
2022-10-29T21:17:06.767Z,97826.50
2022-10-29T21:19:35.523Z,97823.53
2022-10-29T21:22:02.990Z,97815.25
2022-10-29T21:24:30.347Z,97817.81
2022-10-29T21:26:57.594Z,97808.56
2022-10-29T21:29:25.069Z,97800.16
2022-10-29T21:31:52.349Z,97806.63
2022-10-29T21:34:19.605Z,97802.50
2022-10-29T21:36:48.309Z,97797.03
2022-10-29T21:39:15.641Z,97791.88
2022-10-29T21:41:42.976Z,97796.81
2022-10-29T21:44:10.415Z,97794.06
2022-10-29T21:46:37.791Z,97787.97
2022-10-29T21:49:04.970Z,97778.56
2022-10-29T21:51:32.259Z,97773.09
2022-10-29T21:54:01.001Z,97769.22
2022-10-29T21:56:28.533Z,97761.31
2022-10-29T21:58:55.917Z,97756.41
2022-10-29T22:01:23.334Z,97756.81
2022-10-29T22:03:50.768Z,97764.09
2022-10-29T22:06:19.852Z,97760.94
2022-10-29T22:08:52.029Z,97762.75
2022-10-29T22:14:05.439Z,97758.22
2022-10-29T22:16:32.735Z,97747.44
2022-10-29T22:19:00.413Z,97747.06
2022-10-29T22:21:27.832Z,97740.38
2022-10-29T22:23:56.698Z,97736.47
2022-10-29T22:26:27.628Z,97728.59
2022-10-29T22:28:55.804Z,97723.28
2022-10-29T22:31:24.537Z,97724.69
2022-10-29T22:33:52.271Z,97718.78
2022-10-29T22:36:21.306Z,97718.22
2022-10-29T22:38:52.817Z,97719.03
2022-10-29T22:41:20.330Z,97710.38
2022-10-29T22:43:49.141Z,97713.53
2022-10-29T22:46:17.634Z,97715.50
2022-10-29T22:48:45.654Z,97703.94
2022-10-29T22:51:14.912Z,97708.25
2022-10-29T22:53:43.058Z,97702.38
2022-10-29T22:56:14.005Z,97699.03
2022-10-29T22:58:41.426Z,97694.50
2022-10-29T23:01:12.201Z,97685.69
2022-10-29T23:03:40.789Z,97687.28
2022-10-29T23:06:10.229Z,97679.00
2022-10-29T23:08:37.841Z,97681.78
2022-10-29T23:11:06.956Z,97677.88
2022-10-29T23:13:34.761Z,97646.44
2022-10-29T23:16:01.997Z,97671.97
2022-10-29T23:18:30.895Z,97660.59
2022-10-29T23:21:00.108Z,97662.38
2022-10-29T23:23:27.859Z,97665.31
2022-10-29T23:25:58.108Z,97663.72
2022-10-29T23:28:25.361Z,97659.84
2022-10-29T23:30:53.386Z,97659.03
2022-10-29T23:33:20.742Z,97654.94
2022-10-29T23:35:49.574Z,97653.94
2022-10-29T23:38:17.487Z,97647.84
2022-10-29T23:40:44.805Z,97649.44
2022-10-29T23:43:12.367Z,97637.06
2022-10-29T23:45:40.936Z,97636.66
2022-10-29T23:48:08.319Z,97637.84
2022-10-29T23:50:35.816Z,97639.03
2022-10-29T23:53:07.137Z,97636.69
2022-10-29T23:55:34.974Z,97636.13
2022-10-29T23:58:02.645Z,97633.91
